sensor_id;sensor_type;location;lat;lon;timestamp;pressure;altitude;pressure_sealevel;temperature;humidity
56518;BME280;42419;48.760;2.322;2023-01-29T00:00:06;102297.94;;;23.23;25.94
56518;BME280;42419;48.760;2.322;2023-01-29T00:02:37;102300.59;;;23.24;25.93
56518;BME280;42419;48.760;2.322;2023-01-29T00:05:03;102305.97;;;23.24;25.88
56518;BME280;42419;48.760;2.322;2023-01-29T00:07:29;102278.47;;;23.13;25.77
56518;BME280;42419;48.760;2.322;2023-01-29T00:09:55;102281.94;;;23.17;25.92
56518;BME280;42419;48.760;2.322;2023-01-29T00:12:20;102284.56;;;23.20;26.05
56518;BME280;42419;48.760;2.322;2023-01-29T00:14:45;102287.28;;;23.18;26.12
56518;BME280;42419;48.760;2.322;2023-01-29T00:17:10;102278.31;;;23.19;25.85
56518;BME280;42419;48.760;2.322;2023-01-29T00:19:36;102248.50;;;22.96;25.55
56518;BME280;42419;48.760;2.322;2023-01-29T00:22:01;102291.69;;;23.22;25.69
56518;BME280;42419;48.760;2.322;2023-01-29T00:24:29;102269.72;;;23.07;25.72
56518;BME280;42419;48.760;2.322;2023-01-29T00:26:54;102283.63;;;23.22;25.86
56518;BME280;42419;48.760;2.322;2023-01-29T00:29:20;102270.44;;;23.12;25.73
56518;BME280;42419;48.760;2.322;2023-01-29T00:31:46;102256.28;;;23.07;25.76
56518;BME280;42419;48.760;2.322;2023-01-29T00:34:15;102264.22;;;23.11;25.78
56518;BME280;42419;48.760;2.322;2023-01-29T00:36:40;102273.78;;;23.21;25.81
56518;BME280;42419;48.760;2.322;2023-01-29T00:39:08;102271.06;;;23.23;25.58
56518;BME280;42419;48.760;2.322;2023-01-29T00:41:37;102260.44;;;23.17;25.75
56518;BME280;42419;48.760;2.322;2023-01-29T00:44:21;102103.69;;;22.24;25.58
56518;BME280;42419;48.760;2.322;2023-01-29T00:47:05;102257.00;;;23.12;25.78
56518;BME280;42419;48.760;2.322;2023-01-29T00:50:10;102236.66;;;23.03;25.84
56518;BME280;42419;48.760;2.322;2023-01-29T00:52:36;102247.25;;;23.09;25.90
56518;BME280;42419;48.760;2.322;2023-01-29T00:55:03;102262.16;;;23.21;25.75
56518;BME280;42419;48.760;2.322;2023-01-29T00:57:31;102257.84;;;23.14;25.70
56518;BME280;42419;48.760;2.322;2023-01-29T00:59:57;102274.72;;;23.19;25.65
56518;BME280;42419;48.760;2.322;2023-01-29T01:02:23;102269.41;;;23.17;25.70
56518;BME280;42419;48.760;2.322;2023-01-29T01:05:08;102241.09;;;23.04;25.81
56518;BME280;42419;48.760;2.322;2023-01-29T01:07:39;102256.16;;;23.11;25.83
56518;BME280;42419;48.760;2.322;2023-01-29T01:10:05;102249.13;;;23.06;25.88
56518;BME280;42419;48.760;2.322;2023-01-29T01:12:53;102259.50;;;23.19;25.79
56518;BME280;42419;48.760;2.322;2023-01-29T01:15:19;102251.56;;;23.15;25.14
56518;BME280;42419;48.760;2.322;2023-01-29T01:17:45;102236.59;;;23.06;25.67
56518;BME280;42419;48.760;2.322;2023-01-29T01:20:13;102266.69;;;23.19;25.69
56518;BME280;42419;48.760;2.322;2023-01-29T01:22:38;102260.44;;;23.17;25.58
56518;BME280;42419;48.760;2.322;2023-01-29T01:25:04;102231.25;;;23.05;25.41
56518;BME280;42419;48.760;2.322;2023-01-29T01:27:29;102257.69;;;23.20;25.62
56518;BME280;42419;48.760;2.322;2023-01-29T01:29:55;102254.28;;;23.13;25.90
56518;BME280;42419;48.760;2.322;2023-01-29T01:32:20;102235.72;;;23.06;25.49
56518;BME280;42419;48.760;2.322;2023-01-29T01:34:45;102255.25;;;23.11;25.62
56518;BME280;42419;48.760;2.322;2023-01-29T01:37:11;102261.34;;;23.17;25.56
56518;BME280;42419;48.760;2.322;2023-01-29T01:39:36;102266.59;;;23.22;25.56
56518;BME280;42419;48.760;2.322;2023-01-29T01:42:01;102273.75;;;23.23;25.53
56518;BME280;42419;48.760;2.322;2023-01-29T01:47:25;102273.66;;;23.26;25.82
56518;BME280;42419;48.760;2.322;2023-01-29T01:49:52;102253.47;;;23.11;25.50
56518;BME280;42419;48.760;2.322;2023-01-29T01:52:19;102278.13;;;23.27;25.46
56518;BME280;42419;48.760;2.322;2023-01-29T01:54:45;102272.75;;;23.27;25.64
56518;BME280;42419;48.760;2.322;2023-01-29T01:57:16;102257.72;;;23.18;25.27
56518;BME280;42419;48.760;2.322;2023-01-29T01:59:49;102276.44;;;23.23;25.23
56518;BME280;42419;48.760;2.322;2023-01-29T02:02:19;102276.44;;;23.23;25.34
56518;BME280;42419;48.760;2.322;2023-01-29T02:05:04;102271.06;;;23.23;25.56
56518;BME280;42419;48.760;2.322;2023-01-29T02:07:49;102262.31;;;23.15;25.35
56518;BME280;42419;48.760;2.322;2023-01-29T02:10:43;102276.34;;;23.26;25.19
56518;BME280;42419;48.760;2.322;2023-01-29T02:13:09;102272.97;;;23.18;25.36
56518;BME280;42419;48.760;2.322;2023-01-29T02:15:35;102277.31;;;23.23;25.60
56518;BME280;42419;48.760;2.322;2023-01-29T02:18:01;102269.31;;;23.20;25.54
56518;BME280;42419;48.760;2.322;2023-01-29T02:20:29;102287.09;;;23.26;25.39
56518;BME280;42419;48.760;2.322;2023-01-29T02:28:22;102282.59;;;23.26;25.18
56518;BME280;42419;48.760;2.322;2023-01-29T02:36:34;102248.28;;;23.04;25.80
56518;BME280;42419;48.760;2.322;2023-01-29T02:41:50;102286.31;;;23.22;25.21
56518;BME280;42419;48.760;2.322;2023-01-29T02:44:37;102273.94;;;23.15;25.62
56518;BME280;42419;48.760;2.322;2023-01-29T02:47:21;102264.91;;;23.18;25.38
56518;BME280;42419;48.760;2.322;2023-01-29T02:50:07;102239.31;;;23.05;25.19
56518;BME280;42419;48.760;2.322;2023-01-29T02:52:42;102265.69;;;23.23;25.32
56518;BME280;42419;48.760;2.322;2023-01-29T02:55:21;102257.69;;;23.20;25.19
56518;BME280;42419;48.760;2.322;2023-01-29T02:57:57;102266.56;;;23.23;25.38
56518;BME280;42419;48.760;2.322;2023-01-29T03:00:27;102262.09;;;23.24;25.18
56518;BME280;42419;48.760;2.322;2023-01-29T03:03:01;102246.09;;;23.18;25.45
56518;BME280;42419;48.760;2.322;2023-01-29T03:05:58;102256.72;;;23.24;25.24
56518;BME280;42419;48.760;2.322;2023-01-29T03:08:49;102243.38;;;23.19;25.33
56518;BME280;42419;48.760;2.322;2023-01-29T03:11:19;102222.13;;;23.10;25.24
56518;BME280;42419;48.760;2.322;2023-01-29T03:16:45;102244.22;;;23.21;25.16
56518;BME280;42419;48.760;2.322;2023-01-29T03:19:34;102245.09;;;23.22;25.35
56518;BME280;42419;48.760;2.322;2023-01-29T03:22:01;102228.44;;;23.09;25.23
56518;BME280;42419;48.760;2.322;2023-01-29T03:24:37;102244.22;;;23.21;25.24
56518;BME280;42419;48.760;2.322;2023-01-29T03:27:26;102252.25;;;23.23;25.27
56518;BME280;42419;48.760;2.322;2023-01-29T03:30:13;102240.63;;;23.22;25.23
56518;BME280;42419;48.760;2.322;2023-01-29T03:33:01;102233.56;;;23.17;25.01
56518;BME280;42419;48.760;2.322;2023-01-29T03:35:28;102212.53;;;23.02;25.27
56518;BME280;42419;48.760;2.322;2023-01-29T03:38:06;102184.28;;;22.89;25.08
56518;BME280;42419;48.760;2.322;2023-01-29T03:43:10;102223.03;;;23.11;25.11
56518;BME280;42419;48.760;2.322;2023-01-29T03:46:00;102238.81;;;23.23;25.21
56518;BME280;42419;48.760;2.322;2023-01-29T03:48:34;102222.16;;;23.09;25.24
56518;BME280;42419;48.760;2.322;2023-01-29T03:53:59;102237.19;;;23.16;25.11
56518;BME280;42419;48.760;2.322;2023-01-29T03:56:55;102252.22;;;23.24;25.32
56518;BME280;42419;48.760;2.322;2023-01-29T03:59:24;102256.72;;;23.24;25.42
56518;BME280;42419;48.760;2.322;2023-01-29T04:01:58;102232.78;;;23.13;25.24
56518;BME280;42419;48.760;2.322;2023-01-29T04:04:28;102246.03;;;23.21;25.07
56518;BME280;42419;48.760;2.322;2023-01-29T04:07:21;102252.22;;;23.24;25.14
56518;BME280;42419;48.760;2.322;2023-01-29T04:09:57;102246.84;;;23.24;25.04
56518;BME280;42419;48.760;2.322;2023-01-29T04:12:25;102199.13;;;23.00;25.77
56518;BME280;42419;48.760;2.322;2023-01-29T04:14:53;102234.38;;;23.22;24.96
56518;BME280;42419;48.760;2.322;2023-01-29T04:17:27;102245.91;;;23.25;25.30
56518;BME280;42419;48.760;2.322;2023-01-29T04:19:58;102241.50;;;23.23;24.56
56518;BME280;42419;48.760;2.322;2023-01-29T04:22:32;102241.41;;;23.26;24.96
56518;BME280;42419;48.760;2.322;2023-01-29T04:24:59;102221.34;;;23.07;25.20
56518;BME280;42419;48.760;2.322;2023-01-29T04:27:56;102249.47;;;23.26;25.06
56518;BME280;42419;48.760;2.322;2023-01-29T04:30:27;102220.34;;;23.11;25.00
56518;BME280;42419;48.760;2.322;2023-01-29T04:38:50;102248.59;;;23.25;25.08
56518;BME280;42419;48.760;2.322;2023-01-29T04:44:06;102241.50;;;23.23;24.99
56518;BME280;42419;48.760;2.322;2023-01-29T04:49:46;102242.31;;;23.25;25.10
56518;BME280;42419;48.760;2.322;2023-01-29T04:55:28;102233.56;;;23.17;24.78
56518;BME280;42419;48.760;2.322;2023-01-29T04:58:13;102247.69;;;23.25;25.02
56518;BME280;42419;48.760;2.322;2023-01-29T05:00:42;102257.59;;;23.24;24.95
56518;BME280;42419;48.760;2.322;2023-01-29T05:03:11;102248.75;;;23.19;24.92
56518;BME280;42419;48.760;2.322;2023-01-29T05:05:40;102253.19;;;23.22;24.77
56518;BME280;42419;48.760;2.322;2023-01-29T05:08:07;102244.31;;;23.17;24.70
56518;BME280;42419;48.760;2.322;2023-01-29T05:10:34;102257.53;;;23.26;25.11
56518;BME280;42419;48.760;2.322;2023-01-29T05:13:02;102245.22;;;23.17;24.78
56518;BME280;42419;48.760;2.322;2023-01-29T05:15:35;102240.81;;;23.15;24.99
56518;BME280;42419;48.760;2.322;2023-01-29T05:18:02;102263.75;;;23.28;24.90
56518;BME280;42419;48.760;2.322;2023-01-29T05:20:35;102260.19;;;23.27;24.89
56518;BME280;42419;48.760;2.322;2023-01-29T05:23:01;102232.69;;;23.16;24.96
56518;BME280;42419;48.760;2.322;2023-01-29T05:25:29;102238.84;;;23.21;24.74
56518;BME280;42419;48.760;2.322;2023-01-29T05:27:58;102221.16;;;23.13;24.81
56518;BME280;42419;48.760;2.322;2023-01-29T05:30:46;102247.56;;;23.29;24.67
56518;BME280;42419;48.760;2.322;2023-01-29T05:33:21;102217.41;;;23.18;24.60
56518;BME280;42419;48.760;2.322;2023-01-29T05:35:47;102244.88;;;23.29;24.83
56518;BME280;42419;48.760;2.322;2023-01-29T05:38:14;102239.59;;;23.26;24.64
56518;BME280;42419;48.760;2.322;2023-01-29T05:40:39;102225.41;;;23.21;24.87
56518;BME280;42419;48.760;2.322;2023-01-29T05:43:05;102236.81;;;23.29;24.75
56518;BME280;42419;48.760;2.322;2023-01-29T05:45:37;102236.13;;;23.23;24.74
56518;BME280;42419;48.760;2.322;2023-01-29T05:48:02;102255.63;;;23.29;24.83
56518;BME280;42419;48.760;2.322;2023-01-29T05:50:27;102237.09;;;23.20;24.68
56518;BME280;42419;48.760;2.322;2023-01-29T05:53:00;102263.66;;;23.31;24.86
56518;BME280;42419;48.760;2.322;2023-01-29T05:55:27;102256.63;;;23.27;24.60
56518;BME280;42419;48.760;2.322;2023-01-29T05:57:53;102263.66;;;23.31;24.58
56518;BME280;42419;48.760;2.322;2023-01-29T06:00:19;102252.16;;;23.26;24.92
56518;BME280;42419;48.760;2.322;2023-01-29T06:02:44;102239.78;;;23.20;24.68
56518;BME280;42419;48.760;2.322;2023-01-29T06:05:10;102228.34;;;23.12;24.95
56518;BME280;42419;48.760;2.322;2023-01-29T06:07:36;102166.63;;;22.78;24.84
56518;BME280;42419;48.760;2.322;2023-01-29T06:10:04;102233.56;;;23.17;24.61
56518;BME280;42419;48.760;2.322;2023-01-29T06:12:29;102255.84;;;23.23;24.68
56518;BME280;42419;48.760;2.322;2023-01-29T06:14:57;102238.94;;;23.17;24.97
56518;BME280;42419;48.760;2.322;2023-01-29T06:17:23;102254.78;;;23.29;24.56
56518;BME280;42419;48.760;2.322;2023-01-29T06:19:48;102210.78;;;23.01;24.66
56518;BME280;42419;48.760;2.322;2023-01-29T06:22:13;102267.22;;;23.32;24.81
56518;BME280;42419;48.760;2.322;2023-01-29T06:24:39;102257.53;;;23.26;24.51
56518;BME280;42419;48.760;2.322;2023-01-29T06:27:04;102232.88;;;23.10;24.65
56518;BME280;42419;48.760;2.322;2023-01-29T06:29:29;102254.06;;;23.22;24.49
56518;BME280;42419;48.760;2.322;2023-01-29T06:31:55;102255.94;;;23.19;24.78
56518;BME280;42419;48.760;2.322;2023-01-29T06:34:20;102267.28;;;23.30;24.33
56518;BME280;42419;48.760;2.322;2023-01-29T06:36:48;102244.41;;;23.14;24.50
56518;BME280;42419;48.760;2.322;2023-01-29T06:39:14;102274.41;;;23.31;24.59
56518;BME280;42419;48.760;2.322;2023-01-29T06:41:40;102251.56;;;23.15;24.85
56518;BME280;42419;48.760;2.322;2023-01-29T06:44:05;102277.19;;;23.28;24.89
56518;BME280;42419;48.760;2.322;2023-01-29T06:46:30;102269.31;;;23.20;24.68
56518;BME280;42419;48.760;2.322;2023-01-29T06:48:58;102274.56;;;23.25;24.53
56518;BME280;42419;48.760;2.322;2023-01-29T06:51:24;102264.88;;;23.19;24.82
56518;BME280;42419;48.760;2.322;2023-01-29T06:53:49;102249.16;;;23.04;24.66
56518;BME280;42419;48.760;2.322;2023-01-29T06:56:15;102274.72;;;23.20;24.69
56518;BME280;42419;48.760;2.322;2023-01-29T06:58:40;102292.31;;;23.32;24.45
56518;BME280;42419;48.760;2.322;2023-01-29T07:01:10;102290.53;;;23.31;24.61
56518;BME280;42419;48.760;2.322;2023-01-29T07:03:36;102284.28;;;23.31;24.45
56518;BME280;42419;48.760;2.322;2023-01-29T07:06:02;102262.16;;;23.21;24.65
56518;BME280;42419;48.760;2.322;2023-01-29T07:08:28;102289.59;;;23.34;24.40
56518;BME280;42419;48.760;2.322;2023-01-29T07:10:59;102286.03;;;23.32;24.59
56518;BME280;42419;48.760;2.322;2023-01-29T07:13:25;102272.84;;;23.24;24.70
56518;BME280;42419;48.760;2.322;2023-01-29T07:15:50;102278.88;;;23.32;24.53
56518;BME280;42419;48.760;2.322;2023-01-29T07:18:16;102250.63;;;23.16;24.73
56518;BME280;42419;48.760;2.322;2023-01-29T07:20:41;102273.63;;;23.27;24.64
56518;BME280;42419;48.760;2.322;2023-01-29T07:23:12;102270.09;;;23.25;24.39
56518;BME280;42419;48.760;2.322;2023-01-29T07:25:38;102290.38;;;23.37;24.50
56518;BME280;42419;48.760;2.322;2023-01-29T07:28:04;102274.50;;;23.28;24.46
56518;BME280;42419;48.760;2.322;2023-01-29T07:30:29;102282.31;;;23.37;24.53
56518;BME280;42419;48.760;2.322;2023-01-29T07:33:00;102271.84;;;23.26;24.63
56518;BME280;42419;48.760;2.322;2023-01-29T07:35:26;102295.75;;;23.37;24.71
56518;BME280;42419;48.760;2.322;2023-01-29T07:37:51;102289.50;;;23.37;24.06
56518;BME280;42419;48.760;2.322;2023-01-29T07:40:16;102267.41;;;23.25;24.51
56518;BME280;42419;48.760;2.322;2023-01-29T07:42:42;102307.28;;;23.41;24.49
56518;BME280;42419;48.760;2.322;2023-01-29T07:45:09;102289.53;;;23.35;24.29
56518;BME280;42419;48.760;2.322;2023-01-29T07:47:34;102290.31;;;23.39;24.43
56518;BME280;42419;48.760;2.322;2023-01-29T07:50:00;102266.56;;;23.23;24.33
56518;BME280;42419;48.760;2.322;2023-01-29T07:52:25;102282.56;;;23.28;24.48
56518;BME280;42419;48.760;2.322;2023-01-29T07:54:51;102298.31;;;23.42;24.58
56518;BME280;42419;48.760;2.322;2023-01-29T07:57:16;102302.81;;;23.41;24.19
56518;BME280;42419;48.760;2.322;2023-01-29T07:59:41;102298.50;;;23.34;24.32
56518;BME280;42419;48.760;2.322;2023-01-29T08:02:08;102292.22;;;23.35;24.41
56518;BME280;42419;48.760;2.322;2023-01-29T08:04:33;102301.00;;;23.42;24.57
56518;BME280;42419;48.760;2.322;2023-01-29T08:06:58;102290.44;;;23.34;24.41
56518;BME280;42419;48.760;2.322;2023-01-29T08:09:24;102274.56;;;23.25;24.44
56518;BME280;42419;48.760;2.322;2023-01-29T08:11:49;102272.72;;;23.28;24.45
56518;BME280;42419;48.760;2.322;2023-01-29T08:14:14;102294.63;;;23.44;24.23
56518;BME280;42419;48.760;2.322;2023-01-29T08:16:40;102294.63;;;23.44;24.44
56518;BME280;42419;48.760;2.322;2023-01-29T08:19:05;102268.09;;;23.34;24.17
56518;BME280;42419;48.760;2.322;2023-01-29T08:21:30;102297.28;;;23.46;24.01
56518;BME280;42419;48.760;2.322;2023-01-29T08:23:55;102279.63;;;23.37;24.18
56518;BME280;42419;48.760;2.322;2023-01-29T08:26:21;102292.69;;;23.49;24.15
56518;BME280;42419;48.760;2.322;2023-01-29T08:28:46;102297.16;;;23.50;24.32
56518;BME280;42419;48.760;2.322;2023-01-29T08:31:16;102293.56;;;23.51;24.10
56518;BME280;42419;48.760;2.322;2023-01-29T08:33:41;102297.06;;;23.53;24.49
56518;BME280;42419;48.760;2.322;2023-01-29T08:36:08;102287.31;;;23.49;24.13
56518;BME280;42419;48.760;2.322;2023-01-29T08:38:33;102280.19;;;23.48;24.41
56518;BME280;42419;48.760;2.322;2023-01-29T08:40:59;102284.53;;;23.52;24.22
56518;BME280;42419;48.760;2.322;2023-01-29T08:43:24;102279.25;;;23.49;25.13
56518;BME280;42419;48.760;2.322;2023-01-29T08:45:50;102268.53;;;23.48;24.79
56518;BME280;42419;48.760;2.322;2023-01-29T08:48:15;102281.78;;;23.55;24.29
56518;BME280;42419;48.760;2.322;2023-01-29T08:50:40;102291.38;;;23.64;24.12
56518;BME280;42419;48.760;2.322;2023-01-29T08:53:07;102301.91;;;23.71;24.48
56518;BME280;42419;48.760;2.322;2023-01-29T08:55:39;102284.09;;;23.67;24.20
56518;BME280;42419;48.760;2.322;2023-01-29T08:58:06;102284.09;;;23.67;24.14
56518;BME280;42419;48.760;2.322;2023-01-29T09:00:32;102300.88;;;23.76;24.12
56518;BME280;42419;48.760;2.322;2023-01-29T09:02:58;102307.84;;;23.83;24.31
56518;BME280;42419;48.760;2.322;2023-01-29T09:05:26;102304.31;;;23.81;24.47
56518;BME280;42419;48.760;2.322;2023-01-29T09:07:52;102266.44;;;23.59;24.28
56518;BME280;42419;48.760;2.322;2023-01-29T09:10:18;102324.56;;;23.94;24.39
56518;BME280;42419;48.760;2.322;2023-01-29T09:12:44;102339.66;;;23.99;24.28
56518;BME280;42419;48.760;2.322;2023-01-29T09:15:25;102338.34;;;24.12;24.59
56518;BME280;42419;48.760;2.322;2023-01-29T09:17:55;102347.31;;;24.41;24.73
56518;BME280;42419;48.760;2.322;2023-01-29T09:20:24;102283.78;;;24.35;24.91
56518;BME280;42419;48.760;2.322;2023-01-29T09:22:52;102329.16;;;25.00;24.61
56518;BME280;42419;48.760;2.322;2023-01-29T09:25:23;102331.66;;;25.31;24.34
56518;BME280;42419;48.760;2.322;2023-01-29T09:28:00;102328.63;;;25.65;23.86
56518;BME280;42419;48.760;2.322;2023-01-29T09:30:26;102194.13;;;25.08;23.69
56518;BME280;42419;48.760;2.322;2023-01-29T09:32:53;102094.41;;;24.84;23.76
56518;BME280;42419;48.760;2.322;2023-01-29T09:35:20;102209.72;;;25.69;23.04
56518;BME280;42419;48.760;2.322;2023-01-29T09:37:47;102219.50;;;26.17;23.73
56518;BME280;42419;48.760;2.322;2023-01-29T09:40:51;102306.06;;;26.99;23.35
56518;BME280;42419;48.760;2.322;2023-01-29T09:43:29;102325.31;;;27.32;22.22
56518;BME280;42419;48.760;2.322;2023-01-29T09:46:00;102321.06;;;27.47;20.90
56518;BME280;42419;48.760;2.322;2023-01-29T09:48:35;102272.22;;;27.30;20.18
56518;BME280;42419;48.760;2.322;2023-01-29T09:51:05;102324.03;;;27.61;20.60
56518;BME280;42419;48.760;2.322;2023-01-29T09:53:38;102326.28;;;27.70;20.35
56518;BME280;42419;48.760;2.322;2023-01-29T09:56:11;102316.13;;;27.75;20.86
56518;BME280;42419;48.760;2.322;2023-01-29T09:58:42;102326.44;;;27.86;20.71
56518;BME280;42419;48.760;2.322;2023-01-29T10:01:14;102329.81;;;27.91;20.31
56518;BME280;42419;48.760;2.322;2023-01-29T10:04:12;102314.00;;;27.82;19.73
56518;BME280;42419;48.760;2.322;2023-01-29T10:09:39;102327.47;;;27.83;19.34
56518;BME280;42419;48.760;2.322;2023-01-29T10:12:51;102324.31;;;27.74;18.87
56518;BME280;42419;48.760;2.322;2023-01-29T10:20:46;102320.78;;;27.53;18.45
56518;BME280;42419;48.760;2.322;2023-01-29T10:23:22;102323.63;;;27.50;18.38
56518;BME280;42419;48.760;2.322;2023-01-29T10:25:49;102314.88;;;27.43;18.41
56518;BME280;42419;48.760;2.322;2023-01-29T10:28:20;102318.66;;;27.59;18.04
56518;BME280;42419;48.760;2.322;2023-01-29T10:30:49;102318.09;;;27.53;18.04
56518;BME280;42419;48.760;2.322;2023-01-29T10:33:29;102314.63;;;27.49;17.80
56518;BME280;42419;48.760;2.322;2023-01-29T10:36:01;102295.94;;;27.43;17.65
56518;BME280;42419;48.760;2.322;2023-01-29T10:41:29;102300.06;;;27.32;17.08
56518;BME280;42419;48.760;2.322;2023-01-29T10:47:14;102287.25;;;26.96;17.81
56518;BME280;42419;48.760;2.322;2023-01-29T10:50:23;102279.00;;;26.37;16.31
56518;BME280;42419;48.760;2.322;2023-01-29T11:00:49;102277.72;;;23.41;17.51
56518;BME280;42419;48.760;2.322;2023-01-29T11:03:25;102280.63;;;23.01;17.77
56518;BME280;42419;48.760;2.322;2023-01-29T11:11:48;102262.91;;;21.43;18.92
56518;BME280;42419;48.760;2.322;2023-01-29T11:14:24;102258.47;;;21.42;19.85
56518;BME280;42419;48.760;2.322;2023-01-29T11:16:51;102256.34;;;21.59;20.45
56518;BME280;42419;48.760;2.322;2023-01-29T11:19:16;102251.53;;;21.73;20.87
56518;BME280;42419;48.760;2.322;2023-01-29T11:22:00;102256.19;;;22.05;21.21
56518;BME280;42419;48.760;2.322;2023-01-29T11:24:26;102252.94;;;22.28;21.38
56518;BME280;42419;48.760;2.322;2023-01-29T11:26:58;102259.50;;;22.53;21.70
56518;BME280;42419;48.760;2.322;2023-01-29T11:29:33;102253.59;;;22.74;21.99
56518;BME280;42419;48.760;2.322;2023-01-29T11:32:04;102253.09;;;22.93;22.06
56518;BME280;42419;48.760;2.322;2023-01-29T11:34:30;102241.00;;;23.07;22.00
56518;BME280;42419;48.760;2.322;2023-01-29T11:37:15;102227.31;;;23.16;22.16
56518;BME280;42419;48.760;2.322;2023-01-29T11:39:44;102235.59;;;23.41;22.12
56518;BME280;42419;48.760;2.322;2023-01-29T11:42:21;102243.19;;;23.56;22.14
56518;BME280;42419;48.760;2.322;2023-01-29T11:44:47;102229.31;;;23.70;22.44
56518;BME280;42419;48.760;2.322;2023-01-29T11:49:40;102215.94;;;23.96;22.27
56518;BME280;42419;48.760;2.322;2023-01-29T11:52:09;102216.34;;;24.12;22.39
56518;BME280;42419;48.760;2.322;2023-01-29T11:54:58;102193.78;;;24.16;22.62
56518;BME280;42419;48.760;2.322;2023-01-29T11:57:40;102211.22;;;24.31;22.85
56518;BME280;42419;48.760;2.322;2023-01-29T12:00:19;102219.00;;;24.40;22.39
56518;BME280;42419;48.760;2.322;2023-01-29T12:02:53;102211.69;;;24.43;22.51
56518;BME280;42419;48.760;2.322;2023-01-29T12:05:25;102222.28;;;24.49;22.65
56518;BME280;42419;48.760;2.322;2023-01-29T12:07:53;102215.78;;;24.55;23.28
56518;BME280;42419;48.760;2.322;2023-01-29T12:10:37;102207.81;;;24.52;23.04
56518;BME280;42419;48.760;2.322;2023-01-29T12:13:26;102210.41;;;24.55;23.50
56518;BME280;42419;48.760;2.322;2023-01-29T12:16:32;102154.91;;;24.25;23.13
56518;BME280;42419;48.760;2.322;2023-01-29T12:19:15;102205.91;;;24.55;23.29
56518;BME280;42419;48.760;2.322;2023-01-29T12:22:07;102207.50;;;24.61;23.98
56518;BME280;42419;48.760;2.322;2023-01-29T12:24:40;102208.28;;;24.65;24.59
56518;BME280;42419;48.760;2.322;2023-01-29T12:27:18;102196.69;;;24.63;24.59
56518;BME280;42419;48.760;2.322;2023-01-29T12:32:38;102180.41;;;24.66;25.14
56518;BME280;42419;48.760;2.322;2023-01-29T12:37:49;102176.63;;;24.71;25.41
56518;BME280;42419;48.760;2.322;2023-01-29T12:40:16;102165.69;;;24.76;26.26
56518;BME280;42419;48.760;2.322;2023-01-29T12:42:49;102159.41;;;24.75;26.34
56518;BME280;42419;48.760;2.322;2023-01-29T12:45:21;102173.47;;;24.83;26.56
56518;BME280;42419;48.760;2.322;2023-01-29T12:47:51;102175.25;;;24.84;26.54
56518;BME280;42419;48.760;2.322;2023-01-29T12:50:23;102162.03;;;24.77;26.74
56518;BME280;42419;48.760;2.322;2023-01-29T12:52:54;102174.56;;;24.78;26.87
56518;BME280;42419;48.760;2.322;2023-01-29T12:55:54;102151.72;;;24.65;27.10
56518;BME280;42419;48.760;2.322;2023-01-29T12:58:28;102160.72;;;24.64;27.39
56518;BME280;42419;48.760;2.322;2023-01-29T13:00:58;102161.88;;;24.56;27.71
56518;BME280;42419;48.760;2.322;2023-01-29T13:03:47;102162.94;;;24.52;28.34
56518;BME280;42419;48.760;2.322;2023-01-29T13:06:17;102158.66;;;24.45;28.48
56518;BME280;42419;48.760;2.322;2023-01-29T13:08:50;102153.50;;;24.39;28.51
56518;BME280;42419;48.760;2.322;2023-01-29T13:14:39;102147.66;;;24.27;29.91
56518;BME280;42419;48.760;2.322;2023-01-29T13:19:42;102143.72;;;24.10;29.38
56518;BME280;42419;48.760;2.322;2023-01-29T13:22:23;102139.50;;;24.03;30.72
56518;BME280;42419;48.760;2.322;2023-01-29T13:24:50;102081.56;;;23.65;30.52
56518;BME280;42419;48.760;2.322;2023-01-29T13:27:21;102140.69;;;23.95;31.89
56518;BME280;42419;48.760;2.322;2023-01-29T13:29:48;102135.34;;;23.93;31.06
56518;BME280;42419;48.760;2.322;2023-01-29T13:32:19;102135.41;;;23.92;32.14
56518;BME280;42419;48.760;2.322;2023-01-29T13:34:47;102127.50;;;23.87;33.04
56518;BME280;42419;48.760;2.322;2023-01-29T13:37:37;102129.31;;;23.87;32.75
56518;BME280;42419;48.760;2.322;2023-01-29T13:40:06;102100.97;;;23.75;32.94
56518;BME280;42419;48.760;2.322;2023-01-29T13:42:39;102117.72;;;23.83;32.38
56518;BME280;42419;48.760;2.322;2023-01-29T13:45:07;102113.38;;;23.79;31.54
56518;BME280;42419;48.760;2.322;2023-01-29T13:47:41;102098.56;;;23.66;31.31
56518;BME280;42419;48.760;2.322;2023-01-29T13:50:17;102096.88;;;23.63;30.50
56518;BME280;42419;48.760;2.322;2023-01-29T13:52:45;102090.03;;;23.53;27.93
56518;BME280;42419;48.760;2.322;2023-01-29T14:02:41;102089.84;;;22.71;24.89
56518;BME280;42419;48.760;2.322;2023-01-29T14:07:53;102067.47;;;22.40;25.80
56518;BME280;42419;48.760;2.322;2023-01-29T14:10:21;102064.00;;;22.36;26.22
56518;BME280;42419;48.760;2.322;2023-01-29T14:12:49;102063.19;;;22.33;26.33
56518;BME280;42419;48.760;2.322;2023-01-29T14:18:03;102047.22;;;22.28;26.56
56518;BME280;42419;48.760;2.322;2023-01-29T14:20:41;102051.59;;;22.32;26.59
56518;BME280;42419;48.760;2.322;2023-01-29T14:26:01;102017.22;;;22.14;26.29
56518;BME280;42419;48.760;2.322;2023-01-29T14:28:30;102046.56;;;22.20;25.53
56518;BME280;42419;48.760;2.322;2023-01-29T14:30:56;102035.41;;;22.03;25.02
56518;BME280;42419;48.760;2.322;2023-01-29T14:33:39;102040.06;;;21.96;24.78
56518;BME280;42419;48.760;2.322;2023-01-29T14:36:09;102040.28;;;21.87;24.79
56518;BME280;42419;48.760;2.322;2023-01-29T14:38:36;102023.66;;;21.73;24.29
56518;BME280;42419;48.760;2.322;2023-01-29T14:41:27;102030.00;;;21.71;24.14
56518;BME280;42419;48.760;2.322;2023-01-29T14:46:57;102021.38;;;21.58;24.22
56518;BME280;42419;48.760;2.322;2023-01-29T14:49:48;102023.16;;;21.59;23.82
56518;BME280;42419;48.760;2.322;2023-01-29T14:52:14;102018.78;;;21.55;24.03